sensor_id;sensor_type;location;lat;lon;timestamp;pressure;altitude;pressure_sealevel;temperature;humidity
49723;BME280;43484;43.608;1.458;2023-02-28T00:01:27;100251.47;;;1.75;100.00
49723;BME280;43484;43.608;1.458;2023-02-28T00:03:55;100258.28;;;1.76;100.00
49723;BME280;43484;43.608;1.458;2023-02-28T00:06:22;100258.72;;;1.82;100.00
49723;BME280;43484;43.608;1.458;2023-02-28T00:08:49;100244.78;;;1.76;100.00
49723;BME280;43484;43.608;1.458;2023-02-28T00:11:16;100258.41;;;1.66;100.00
49723;BME280;43484;43.608;1.458;2023-02-28T00:13:45;100259.81;;;1.63;100.00
49723;BME280;43484;43.608;1.458;2023-02-28T00:16:16;100257.41;;;1.76;100.00
49723;BME280;43484;43.608;1.458;2023-02-28T00:18:44;100280.25;;;1.66;100.00
49723;BME280;43484;43.608;1.458;2023-02-28T00:21:10;100266.31;;;1.71;100.00
49723;BME280;43484;43.608;1.458;2023-02-28T00:23:37;100269.69;;;1.71;100.00
49723;BME280;43484;43.608;1.458;2023-02-28T00:26:05;100269.28;;;1.65;100.00
49723;BME280;43484;43.608;1.458;2023-02-28T00:28:32;100266.75;;;1.54;100.00
49723;BME280;43484;43.608;1.458;2023-02-28T00:30:59;100283.97;;;1.48;100.00
49723;BME280;43484;43.608;1.458;2023-02-28T00:33:27;100267.31;;;1.50;100.00
49723;BME280;43484;43.608;1.458;2023-02-28T00:36:02;100269.59;;;1.58;100.00
49723;BME280;43484;43.608;1.458;2023-02-28T00:38:30;100274.53;;;1.57;100.00
49723;BME280;43484;43.608;1.458;2023-02-28T00:40:57;100268.59;;;1.68;100.00
49723;BME280;43484;43.608;1.458;2023-02-28T00:43:24;100269.50;;;1.45;100.00
49723;BME280;43484;43.608;1.458;2023-02-28T00:45:51;100273.66;;;1.45;100.00
49723;BME280;43484;43.608;1.458;2023-02-28T00:48:18;100269.84;;;1.38;100.00
49723;BME280;43484;43.608;1.458;2023-02-28T00:50:48;100286.41;;;1.35;100.00
49723;BME280;43484;43.608;1.458;2023-02-28T00:53:16;100287.06;;;1.44;100.00
49723;BME280;43484;43.608;1.458;2023-02-28T00:55:43;100282.03;;;1.44;100.00
49723;BME280;43484;43.608;1.458;2023-02-28T00:58:09;100294.19;;;1.38;100.00
49723;BME280;43484;43.608;1.458;2023-02-28T01:00:36;100291.00;;;1.28;100.00
49723;BME280;43484;43.608;1.458;2023-02-28T01:03:03;100292.13;;;1.32;100.00
49723;BME280;43484;43.608;1.458;2023-02-28T01:05:29;100294.53;;;1.31;100.00
49723;BME280;43484;43.608;1.458;2023-02-28T01:07:56;100298.16;;;1.46;100.00
49723;BME280;43484;43.608;1.458;2023-02-28T01:10:22;100296.59;;;1.36;100.00
49723;BME280;43484;43.608;1.458;2023-02-28T01:12:49;100305.59;;;1.33;100.00
49723;BME280;43484;43.608;1.458;2023-02-28T01:15:16;100300.44;;;1.43;100.00
49723;BME280;43484;43.608;1.458;2023-02-28T01:17:43;100310.09;;;1.48;100.00
49723;BME280;43484;43.608;1.458;2023-02-28T01:20:10;100317.88;;;1.40;100.00
49723;BME280;43484;43.608;1.458;2023-02-28T01:22:36;100309.88;;;1.34;100.00
49723;BME280;43484;43.608;1.458;2023-02-28T01:25:03;100304.63;;;1.31;100.00
49723;BME280;43484;43.608;1.458;2023-02-28T01:27:30;100313.06;;;1.31;100.00
49723;BME280;43484;43.608;1.458;2023-02-28T01:29:57;100316.91;;;1.38;100.00
49723;BME280;43484;43.608;1.458;2023-02-28T01:32:24;100322.63;;;1.35;100.00
49723;BME280;43484;43.608;1.458;2023-02-28T01:34:50;100318.88;;;1.53;100.00
49723;BME280;43484;43.608;1.458;2023-02-28T01:37:19;100324.72;;;1.52;100.00
49723;BME280;43484;43.608;1.458;2023-02-28T01:39:46;100314.72;;;1.42;100.00
49723;BME280;43484;43.608;1.458;2023-02-28T01:42:12;100318.56;;;1.49;100.00
49723;BME280;43484;43.608;1.458;2023-02-28T01:45:03;100326.47;;;1.42;100.00
49723;BME280;43484;43.608;1.458;2023-02-28T01:47:34;100330.50;;;1.40;100.00
49723;BME280;43484;43.608;1.458;2023-02-28T01:50:05;100337.75;;;1.35;100.00
49723;BME280;43484;43.608;1.458;2023-02-28T01:52:32;100341.00;;;1.22;100.00
49723;BME280;43484;43.608;1.458;2023-02-28T01:55:01;100339.59;;;1.38;100.00
49723;BME280;43484;43.608;1.458;2023-02-28T01:57:33;100335.66;;;1.41;100.00
49723;BME280;43484;43.608;1.458;2023-02-28T02:00:07;100343.09;;;1.16;100.00
49723;BME280;43484;43.608;1.458;2023-02-28T02:02:36;100347.84;;;1.23;100.00
49723;BME280;43484;43.608;1.458;2023-02-28T02:05:07;100351.47;;;1.27;100.00
49723;BME280;43484;43.608;1.458;2023-02-28T02:07:38;100344.94;;;1.19;100.00
49723;BME280;43484;43.608;1.458;2023-02-28T02:10:18;100340.78;;;1.19;100.00
49723;BME280;43484;43.608;1.458;2023-02-28T02:18:57;100346.84;;;1.33;100.00
49723;BME280;43484;43.608;1.458;2023-02-28T02:27:01;100349.34;;;1.21;100.00
49723;BME280;43484;43.608;1.458;2023-02-28T02:34:49;100344.44;;;1.35;100.00
49723;BME280;43484;43.608;1.458;2023-02-28T02:40:14;100350.69;;;1.40;100.00
49723;BME280;43484;43.608;1.458;2023-02-28T02:45:25;100342.59;;;1.44;100.00
49723;BME280;43484;43.608;1.458;2023-02-28T02:47:56;100336.97;;;1.36;100.00
49723;BME280;43484;43.608;1.458;2023-02-28T02:50:31;100336.75;;;1.33;100.00
49723;BME280;43484;43.608;1.458;2023-02-28T02:53:01;100332.50;;;1.32;100.00
49723;BME280;43484;43.608;1.458;2023-02-28T02:55:29;100327.66;;;1.23;100.00
49723;BME280;43484;43.608;1.458;2023-02-28T02:58:04;100334.00;;;1.30;100.00
49723;BME280;43484;43.608;1.458;2023-02-28T03:00:39;100330.28;;;1.37;100.00
49723;BME280;43484;43.608;1.458;2023-02-28T03:03:09;100327.66;;;1.35;100.00
49723;BME280;43484;43.608;1.458;2023-02-28T03:05:50;100327.34;;;1.42;100.00
49723;BME280;43484;43.608;1.458;2023-02-28T03:08:17;100327.66;;;1.47;100.00
49723;BME280;43484;43.608;1.458;2023-02-28T03:10:45;100329.50;;;1.38;100.00
49723;BME280;43484;43.608;1.458;2023-02-28T03:13:36;100321.19;;;1.39;100.00
49723;BME280;43484;43.608;1.458;2023-02-28T03:21:44;100320.63;;;1.43;100.00
49723;BME280;43484;43.608;1.458;2023-02-28T03:24:19;100313.41;;;1.36;100.00
49723;BME280;43484;43.608;1.458;2023-02-28T03:26:58;100321.72;;;1.35;100.00
49723;BME280;43484;43.608;1.458;2023-02-28T03:29:35;100320.84;;;1.34;100.00
49723;BME280;43484;43.608;1.458;2023-02-28T03:34:38;100323.03;;;1.29;100.00
49723;BME280;43484;43.608;1.458;2023-02-28T03:37:13;100323.38;;;1.34;100.00
49723;BME280;43484;43.608;1.458;2023-02-28T03:39:48;100320.53;;;1.41;100.00
49723;BME280;43484;43.608;1.458;2023-02-28T03:42:22;100320.09;;;1.35;100.00
49723;BME280;43484;43.608;1.458;2023-02-28T03:45:00;100317.66;;;1.37;100.00
49723;BME280;43484;43.608;1.458;2023-02-28T03:47:32;100320.97;;;1.36;100.00
49723;BME280;43484;43.608;1.458;2023-02-28T03:50:13;100314.38;;;1.38;100.00
49723;BME280;43484;43.608;1.458;2023-02-28T03:52:48;100314.16;;;1.35;100.00
49723;BME280;43484;43.608;1.458;2023-02-28T03:55:16;100316.47;;;1.32;100.00
49723;BME280;43484;43.608;1.458;2023-02-28T03:57:56;100311.75;;;1.36;100.00
49723;BME280;43484;43.608;1.458;2023-02-28T04:00:34;100315.94;;;1.36;100.00
49723;BME280;43484;43.608;1.458;2023-02-28T04:03:03;100330.06;;;1.22;100.00
49723;BME280;43484;43.608;1.458;2023-02-28T04:05:30;100314.25;;;1.24;100.00
49723;BME280;43484;43.608;1.458;2023-02-28T04:08:05;100316.47;;;1.32;100.00
49723;BME280;43484;43.608;1.458;2023-02-28T04:10:32;100320.28;;;1.26;100.00
49723;BME280;43484;43.608;1.458;2023-02-28T04:12:59;100313.06;;;1.31;100.00
49723;BME280;43484;43.608;1.458;2023-02-28T04:15:25;100320.94;;;1.24;100.00
49723;BME280;43484;43.608;1.458;2023-02-28T04:17:53;100320.38;;;1.16;100.00
49723;BME280;43484;43.608;1.458;2023-02-28T04:20:20;100323.03;;;1.18;100.00
49723;BME280;43484;43.608;1.458;2023-02-28T04:22:46;100320.81;;;1.22;100.00
49723;BME280;43484;43.608;1.458;2023-02-28T04:25:13;100321.81;;;1.13;100.00
49723;BME280;43484;43.608;1.458;2023-02-28T04:27:39;100324.13;;;1.21;100.00
49723;BME280;43484;43.608;1.458;2023-02-28T04:30:07;100322.13;;;1.17;100.00
49723;BME280;43484;43.608;1.458;2023-02-28T04:32:33;100323.03;;;1.18;100.00
49723;BME280;43484;43.608;1.458;2023-02-28T04:35:00;100326.13;;;1.25;100.00
49723;BME280;43484;43.608;1.458;2023-02-28T04:37:27;100329.19;;;1.21;100.00
49723;BME280;43484;43.608;1.458;2023-02-28T04:39:55;100323.03;;;1.18;100.00
49723;BME280;43484;43.608;1.458;2023-02-28T04:42:21;100330.16;;;1.12;100.00
49723;BME280;43484;43.608;1.458;2023-02-28T04:44:48;100324.91;;;1.20;100.00
49723;BME280;43484;43.608;1.458;2023-02-28T04:47:14;100329.59;;;1.16;100.00
49723;BME280;43484;43.608;1.458;2023-02-28T04:49:41;100326.22;;;1.15;100.00
49723;BME280;43484;43.608;1.458;2023-02-28T04:52:07;100323.88;;;1.07;100.00
49723;BME280;43484;43.608;1.458;2023-02-28T04:54:36;100321.47;;;1.08;100.00
49723;BME280;43484;43.608;1.458;2023-02-28T04:57:05;100326.72;;;1.00;100.00
49723;BME280;43484;43.608;1.458;2023-02-28T04:59:32;100322.56;;;1.00;100.00
49723;BME280;43484;43.608;1.458;2023-02-28T05:01:59;100325.41;;;1.05;100.00
49723;BME280;43484;43.608;1.458;2023-02-28T05:04:26;100330.13;;;1.00;100.00
49723;BME280;43484;43.608;1.458;2023-02-28T05:06:53;100330.66;;;0.96;100.00
49723;BME280;43484;43.608;1.458;2023-02-28T05:09:19;100334.06;;;0.97;100.00
49723;BME280;43484;43.608;1.458;2023-02-28T05:11:46;100337.03;;;1.03;100.00
49723;BME280;43484;43.608;1.458;2023-02-28T05:14:13;100348.59;;;0.89;100.00
49723;BME280;43484;43.608;1.458;2023-02-28T05:16:40;100338.06;;;0.83;100.00
49723;BME280;43484;43.608;1.458;2023-02-28T05:19:07;100339.06;;;0.85;100.00
49723;BME280;43484;43.608;1.458;2023-02-28T05:21:35;100337.06;;;0.81;100.00
49723;BME280;43484;43.608;1.458;2023-02-28T05:24:06;100332.25;;;0.84;100.00
49723;BME280;43484;43.608;1.458;2023-02-28T05:26:37;100326.47;;;0.85;100.00
49723;BME280;43484;43.608;1.458;2023-02-28T05:29:05;100328.50;;;0.79;100.00
49723;BME280;43484;43.608;1.458;2023-02-28T05:31:32;100321.50;;;0.75;100.00
49723;BME280;43484;43.608;1.458;2023-02-28T05:33:59;100339.16;;;0.75;100.00
49723;BME280;43484;43.608;1.458;2023-02-28T05:36:25;100341.41;;;0.72;100.00
49723;BME280;43484;43.608;1.458;2023-02-28T05:38:52;100346.56;;;0.74;100.00
49723;BME280;43484;43.608;1.458;2023-02-28T05:41:19;100347.88;;;0.69;100.00
49723;BME280;43484;43.608;1.458;2023-02-28T05:43:47;100352.91;;;0.69;100.00
49723;BME280;43484;43.608;1.458;2023-02-28T05:46:14;100350.88;;;0.75;100.00
49723;BME280;43484;43.608;1.458;2023-02-28T05:48:42;100350.94;;;0.65;100.00
49723;BME280;43484;43.608;1.458;2023-02-28T05:51:11;100353.13;;;0.60;100.00
49723;BME280;43484;43.608;1.458;2023-02-28T05:53:38;100352.75;;;0.56;100.00
49723;BME280;43484;43.608;1.458;2023-02-28T05:56:05;100348.59;;;0.56;100.00
49723;BME280;43484;43.608;1.458;2023-02-28T05:58:32;100345.72;;;0.52;100.00
49723;BME280;43484;43.608;1.458;2023-02-28T06:01:00;100354.88;;;0.61;100.00
49723;BME280;43484;43.608;1.458;2023-02-28T06:03:27;100357.03;;;0.57;100.00
49723;BME280;43484;43.608;1.458;2023-02-28T06:05:54;100362.38;;;0.50;100.00
49723;BME280;43484;43.608;1.458;2023-02-28T06:08:21;100358.72;;;0.46;100.00
49723;BME280;43484;43.608;1.458;2023-02-28T06:10:47;100358.22;;;0.50;100.00
49723;BME280;43484;43.608;1.458;2023-02-28T06:13:14;100352.06;;;0.47;100.00
49723;BME280;43484;43.608;1.458;2023-02-28T06:15:41;100353.91;;;0.49;100.00
49723;BME280;43484;43.608;1.458;2023-02-28T06:18:08;100360.47;;;0.47;100.00
49723;BME280;43484;43.608;1.458;2023-02-28T06:20:35;100353.81;;;0.48;100.00
49723;BME280;43484;43.608;1.458;2023-02-28T06:23:03;100351.94;;;0.45;100.00
49723;BME280;43484;43.608;1.458;2023-02-28T06:25:29;100357.91;;;0.36;100.00
49723;BME280;43484;43.608;1.458;2023-02-28T06:27:56;100356.78;;;0.32;100.00
49723;BME280;43484;43.608;1.458;2023-02-28T06:30:23;100368.53;;;0.32;100.00
49723;BME280;43484;43.608;1.458;2023-02-28T06:32:54;100365.28;;;0.44;100.00
49723;BME280;43484;43.608;1.458;2023-02-28T06:35:21;100366.34;;;0.36;100.00
49723;BME280;43484;43.608;1.458;2023-02-28T06:37:47;100364.00;;;0.49;100.00
49723;BME280;43484;43.608;1.458;2023-02-28T06:40:14;100365.53;;;0.47;100.00
49723;BME280;43484;43.608;1.458;2023-02-28T06:42:41;100364.28;;;0.42;100.00
49723;BME280;43484;43.608;1.458;2023-02-28T06:45:09;100368.59;;;0.43;100.00
49723;BME280;43484;43.608;1.458;2023-02-28T06:47:37;100358.69;;;0.35;100.00
49723;BME280;43484;43.608;1.458;2023-02-28T06:50:05;100362.03;;;0.45;100.00
49723;BME280;43484;43.608;1.458;2023-02-28T06:52:32;100369.88;;;0.38;100.00
49723;BME280;43484;43.608;1.458;2023-02-28T06:54:59;100370.56;;;0.47;100.00
49723;BME280;43484;43.608;1.458;2023-02-28T06:57:29;100364.66;;;0.47;100.00
49723;BME280;43484;43.608;1.458;2023-02-28T06:59:58;100374.63;;;0.45;100.00
49723;BME280;43484;43.608;1.458;2023-02-28T07:02:26;100379.78;;;0.47;100.00
49723;BME280;43484;43.608;1.458;2023-02-28T07:04:53;100389.44;;;0.52;100.00
49723;BME280;43484;43.608;1.458;2023-02-28T07:07:19;100385.94;;;0.50;100.00
49723;BME280;43484;43.608;1.458;2023-02-28T07:09:46;100395.13;;;0.50;100.00
49723;BME280;43484;43.608;1.458;2023-02-28T07:12:13;100387.09;;;0.44;100.00
49723;BME280;43484;43.608;1.458;2023-02-28T07:14:40;100386.97;;;0.42;100.00
49723;BME280;43484;43.608;1.458;2023-02-28T07:17:08;100390.88;;;0.39;100.00
49723;BME280;43484;43.608;1.458;2023-02-28T07:19:34;100392.66;;;0.40;100.00
49723;BME280;43484;43.608;1.458;2023-02-28T07:22:01;100391.09;;;0.52;100.00
49723;BME280;43484;43.608;1.458;2023-02-28T07:24:29;100396.66;;;0.48;100.00
49723;BME280;43484;43.608;1.458;2023-02-28T07:26:55;100398.22;;;0.57;100.00
49723;BME280;43484;43.608;1.458;2023-02-28T07:29:22;100407.78;;;0.61;100.00
49723;BME280;43484;43.608;1.458;2023-02-28T07:31:49;100394.72;;;0.55;100.00
49723;BME280;43484;43.608;1.458;2023-02-28T07:34:20;100404.75;;;0.65;100.00
49723;BME280;43484;43.608;1.458;2023-02-28T07:36:47;100404.88;;;0.67;100.00
49723;BME280;43484;43.608;1.458;2023-02-28T07:39:14;100406.69;;;0.58;100.00
49723;BME280;43484;43.608;1.458;2023-02-28T07:41:40;100407.13;;;0.64;100.00
49723;BME280;43484;43.608;1.458;2023-02-28T07:44:13;100412.44;;;0.67;100.00
49723;BME280;43484;43.608;1.458;2023-02-28T07:46:39;100419.34;;;0.69;100.00
49723;BME280;43484;43.608;1.458;2023-02-28T07:49:06;100421.22;;;0.72;100.00
49723;BME280;43484;43.608;1.458;2023-02-28T07:51:33;100414.28;;;0.69;100.00
49723;BME280;43484;43.608;1.458;2023-02-28T07:53:59;100412.78;;;0.71;100.00
49723;BME280;43484;43.608;1.458;2023-02-28T07:56:26;100417.03;;;0.72;100.00
49723;BME280;43484;43.608;1.458;2023-02-28T07:58:53;100414.56;;;0.84;100.00
49723;BME280;43484;43.608;1.458;2023-02-28T08:01:20;100421.19;;;0.82;100.00
49723;BME280;43484;43.608;1.458;2023-02-28T08:03:47;100418.00;;;0.84;100.00
49723;BME280;43484;43.608;1.458;2023-02-28T08:06:19;100414.72;;;0.85;100.00
49723;BME280;43484;43.608;1.458;2023-02-28T08:08:47;100420.44;;;0.94;100.00
49723;BME280;43484;43.608;1.458;2023-02-28T08:11:15;100423.59;;;1.13;100.00
49723;BME280;43484;43.608;1.458;2023-02-28T08:13:43;100423.72;;;1.15;100.00
49723;BME280;43484;43.608;1.458;2023-02-28T08:16:11;100424.00;;;1.08;100.00
49723;BME280;43484;43.608;1.458;2023-02-28T08:18:41;100430.31;;;1.24;100.00
49723;BME280;43484;43.608;1.458;2023-02-28T08:21:09;100425.16;;;1.23;100.00
49723;BME280;43484;43.608;1.458;2023-02-28T08:23:36;100422.03;;;1.37;100.00
49723;BME280;43484;43.608;1.458;2023-02-28T08:26:03;100427.94;;;1.38;100.00
49723;BME280;43484;43.608;1.458;2023-02-28T08:28:30;100431.41;;;1.61;100.00
49723;BME280;43484;43.608;1.458;2023-02-28T08:30:57;100431.75;;;1.33;100.00
49723;BME280;43484;43.608;1.458;2023-02-28T08:33:25;100419.94;;;1.43;100.00
49723;BME280;43484;43.608;1.458;2023-02-28T08:35:54;100427.47;;;1.76;100.00
49723;BME280;43484;43.608;1.458;2023-02-28T08:38:21;100436.94;;;1.79;100.00
49723;BME280;43484;43.608;1.458;2023-02-28T08:40:48;100428.25;;;1.98;100.00
49723;BME280;43484;43.608;1.458;2023-02-28T08:43:16;100438.47;;;2.00;100.00
49723;BME280;43484;43.608;1.458;2023-02-28T08:45:42;100427.03;;;2.05;100.00
49723;BME280;43484;43.608;1.458;2023-02-28T08:48:09;100432.88;;;2.27;100.00
49723;BME280;43484;43.608;1.458;2023-02-28T08:50:36;100440.56;;;2.28;100.00
49723;BME280;43484;43.608;1.458;2023-02-28T08:53:02;100440.19;;;2.47;100.00
49723;BME280;43484;43.608;1.458;2023-02-28T08:55:29;100441.53;;;2.42;100.00
49723;BME280;43484;43.608;1.458;2023-02-28T08:57:56;100450.97;;;2.56;100.00
49723;BME280;43484;43.608;1.458;2023-02-28T09:00:23;100448.31;;;2.43;100.00
49723;BME280;43484;43.608;1.458;2023-02-28T09:02:49;100449.88;;;2.52;100.00
49723;BME280;43484;43.608;1.458;2023-02-28T09:05:16;100450.47;;;2.73;100.00
49723;BME280;43484;43.608;1.458;2023-02-28T09:07:43;100445.84;;;2.79;100.00
49723;BME280;43484;43.608;1.458;2023-02-28T09:10:10;100454.47;;;2.46;100.00
49723;BME280;43484;43.608;1.458;2023-02-28T09:12:37;100451.34;;;2.26;100.00
49723;BME280;43484;43.608;1.458;2023-02-28T09:15:04;100448.34;;;2.20;100.00
49723;BME280;43484;43.608;1.458;2023-02-28T09:17:31;100445.63;;;2.17;100.00
49723;BME280;43484;43.608;1.458;2023-02-28T09:19:58;100453.97;;;2.16;100.00
49723;BME280;43484;43.608;1.458;2023-02-28T09:22:24;100461.00;;;2.20;100.00
49723;BME280;43484;43.608;1.458;2023-02-28T09:24:51;100452.97;;;2.37;100.00
49723;BME280;43484;43.608;1.458;2023-02-28T09:27:18;100448.03;;;2.27;100.00
49723;BME280;43484;43.608;1.458;2023-02-28T09:29:45;100459.00;;;2.39;100.00
49723;BME280;43484;43.608;1.458;2023-02-28T09:32:11;100450.97;;;2.56;100.00
49723;BME280;43484;43.608;1.458;2023-02-28T09:34:38;100467.81;;;2.44;100.00
49723;BME280;43484;43.608;1.458;2023-02-28T09:37:05;100453.72;;;2.59;100.00
49723;BME280;43484;43.608;1.458;2023-02-28T09:39:32;100461.63;;;2.64;100.00
49723;BME280;43484;43.608;1.458;2023-02-28T09:41:58;100460.25;;;2.80;100.00
49723;BME280;43484;43.608;1.458;2023-02-28T09:44:37;100458.16;;;2.86;100.00
49723;BME280;43484;43.608;1.458;2023-02-28T09:47:44;100462.41;;;2.99;100.00
49723;BME280;43484;43.608;1.458;2023-02-28T09:50:52;100456.38;;;2.85;100.00
49723;BME280;43484;43.608;1.458;2023-02-28T09:53:31;100454.88;;;3.12;100.00
49723;BME280;43484;43.608;1.458;2023-02-28T09:56:06;100460.00;;;3.25;100.00
49723;BME280;43484;43.608;1.458;2023-02-28T09:58:42;100463.88;;;3.20;100.00
49723;BME280;43484;43.608;1.458;2023-02-28T10:04:04;100472.22;;;3.19;100.00
49723;BME280;43484;43.608;1.458;2023-02-28T10:06:48;100457.97;;;3.32;100.00
49723;BME280;43484;43.608;1.458;2023-02-28T10:11:50;100454.19;;;3.39;100.00
49723;BME280;43484;43.608;1.458;2023-02-28T10:14:26;100460.19;;;3.52;100.00
49723;BME280;43484;43.608;1.458;2023-02-28T10:16:57;100465.09;;;3.62;100.00
49723;BME280;43484;43.608;1.458;2023-02-28T10:22:50;100465.06;;;3.49;100.00
49723;BME280;43484;43.608;1.458;2023-02-28T10:25:24;100471.63;;;3.34;100.00
49723;BME280;43484;43.608;1.458;2023-02-28T10:28:12;100459.25;;;3.39;100.00
49723;BME280;43484;43.608;1.458;2023-02-28T10:30:42;100469.28;;;3.13;100.00
49723;BME280;43484;43.608;1.458;2023-02-28T10:33:33;100471.09;;;3.27;100.00
49723;BME280;43484;43.608;1.458;2023-02-28T10:36:04;100473.41;;;3.48;100.00
49723;BME280;43484;43.608;1.458;2023-02-28T10:38:35;100480.06;;;3.46;100.00
49723;BME280;43484;43.608;1.458;2023-02-28T10:41:15;100479.41;;;3.37;100.00
49723;BME280;43484;43.608;1.458;2023-02-28T10:43:43;100471.59;;;3.59;100.00
49723;BME280;43484;43.608;1.458;2023-02-28T10:46:15;100469.53;;;3.53;100.00
49723;BME280;43484;43.608;1.458;2023-02-28T10:49:07;100468.81;;;3.67;100.00
49723;BME280;43484;43.608;1.458;2023-02-28T10:51:40;100462.94;;;3.68;100.00
49723;BME280;43484;43.608;1.458;2023-02-28T10:54:39;100453.22;;;3.74;100.00
49723;BME280;43484;43.608;1.458;2023-02-28T10:57:16;100451.97;;;3.81;100.00
49723;BME280;43484;43.608;1.458;2023-02-28T10:59:44;100457.78;;;3.67;100.00
49723;BME280;43484;43.608;1.458;2023-02-28T11:04:55;100456.09;;;3.54;100.00
49723;BME280;43484;43.608;1.458;2023-02-28T11:07:23;100472.56;;;3.48;100.00
49723;BME280;43484;43.608;1.458;2023-02-28T11:09:57;100474.41;;;3.50;100.00
49723;BME280;43484;43.608;1.458;2023-02-28T11:12:38;100466.28;;;3.67;100.00
49723;BME280;43484;43.608;1.458;2023-02-28T11:15:30;100463.59;;;3.53;100.00
49723;BME280;43484;43.608;1.458;2023-02-28T11:18:01;100457.50;;;3.75;100.00
49723;BME280;43484;43.608;1.458;2023-02-28T11:20:31;100458.09;;;3.71;100.00
49723;BME280;43484;43.608;1.458;2023-02-28T11:23:01;100464.03;;;3.72;100.00
49723;BME280;43484;43.608;1.458;2023-02-28T11:25:33;100457.41;;;3.74;100.00
49723;BME280;43484;43.608;1.458;2023-02-28T11:28:03;100461.41;;;3.70;100.00
49723;BME280;43484;43.608;1.458;2023-02-28T11:30:38;100460.47;;;3.57;100.00
49723;BME280;43484;43.608;1.458;2023-02-28T11:33:28;100461.75;;;3.63;100.00
49723;BME280;43484;43.608;1.458;2023-02-28T11:36:03;100451.19;;;3.82;100.00
49723;BME280;43484;43.608;1.458;2023-02-28T11:38:33;100459.50;;;3.93;100.00
49723;BME280;43484;43.608;1.458;2023-02-28T11:44:05;100448.19;;;4.14;100.00
49723;BME280;43484;43.608;1.458;2023-02-28T11:57:35;100414.19;;;4.64;100.00
49723;BME280;43484;43.608;1.458;2023-02-28T12:11:23;100421.03;;;4.65;100.00
49723;BME280;43484;43.608;1.458;2023-02-28T12:22:03;100395.75;;;4.94;100.00
49723;BME280;43484;43.608;1.458;2023-02-28T12:27:23;100396.16;;;4.59;100.00
49723;BME280;43484;43.608;1.458;2023-02-28T12:30:05;100384.38;;;4.60;100.00
49723;BME280;43484;43.608;1.458;2023-02-28T12:32:39;100376.84;;;4.89;100.00
49723;BME280;43484;43.608;1.458;2023-02-28T12:35:14;100381.44;;;5.09;100.00
49723;BME280;43484;43.608;1.458;2023-02-28T12:37:57;100378.22;;;5.26;100.00
49723;BME280;43484;43.608;1.458;2023-02-28T12:40:34;100382.72;;;5.16;100.00
49723;BME280;43484;43.608;1.458;2023-02-28T12:43:09;100373.97;;;4.97;100.00
49723;BME280;43484;43.608;1.458;2023-02-28T12:45:46;100382.13;;;5.34;100.00
49723;BME280;43484;43.608;1.458;2023-02-28T12:48:25;100383.22;;;5.10;100.00
49723;BME280;43484;43.608;1.458;2023-02-28T12:50:54;100367.94;;;5.52;100.00
49723;BME280;43484;43.608;1.458;2023-02-28T12:53:32;100368.88;;;5.10;100.00
49723;BME280;43484;43.608;1.458;2023-02-28T12:56:36;100369.22;;;5.31;100.00
49723;BME280;43484;43.608;1.458;2023-02-28T12:59:12;100365.09;;;5.19;100.00
49723;BME280;43484;43.608;1.458;2023-02-28T13:04:27;100364.53;;;4.95;100.00
49723;BME280;43484;43.608;1.458;2023-02-28T13:09:31;100355.91;;;4.78;100.00
49723;BME280;43484;43.608;1.458;2023-02-28T13:11:58;100365.50;;;4.69;100.00
49723;BME280;43484;43.608;1.458;2023-02-28T13:14:36;100355.59;;;5.01;100.00
49723;BME280;43484;43.608;1.458;2023-02-28T13:19:36;100342.94;;;5.16;100.00
49723;BME280;43484;43.608;1.458;2023-02-28T13:22:04;100346.13;;;4.99;100.00
49723;BME280;43484;43.608;1.458;2023-02-28T13:24:42;100356.03;;;4.94;100.00
49723;BME280;43484;43.608;1.458;2023-02-28T13:27:20;100361.50;;;5.00;100.00
49723;BME280;43484;43.608;1.458;2023-02-28T13:29:52;100360.84;;;4.90;100.00
49723;BME280;43484;43.608;1.458;2023-02-28T13:42:34;100357.91;;;5.11;100.00
49723;BME280;43484;43.608;1.458;2023-02-28T13:47:54;100349.13;;;5.06;100.00
49723;BME280;43484;43.608;1.458;2023-02-28T13:53:17;100336.69;;;4.96;100.00
49723;BME280;43484;43.608;1.458;2023-02-28T14:06:52;100330.94;;;5.28;98.54
49723;BME280;43484;43.608;1.458;2023-02-28T14:09:35;100334.88;;;5.23;98.66
49723;BME280;43484;43.608;1.458;2023-02-28T14:15:44;100348.09;;;5.18;100.00
49723;BME280;43484;43.608;1.458;2023-02-28T14:18:31;100334.47;;;5.30;100.00
49723;BME280;43484;43.608;1.458;2023-02-28T14:26:26;100345.47;;;5.16;100.00
49723;BME280;43484;43.608;1.458;2023-02-28T14:29:14;100359.47;;;5.09;100.00
49723;BME280;43484;43.608;1.458;2023-02-28T14:32:03;100349.13;;;4.92;100.00
49723;BME280;43484;43.608;1.458;2023-02-28T14:34:55;100348.63;;;5.12;100.00
49723;BME280;43484;43.608;1.458;2023-02-28T14:37:33;100358.38;;;5.19;100.00
49723;BME280;43484;43.608;1.458;2023-02-28T14:40:03;100349.13;;;4.92;100.00
49723;BME280;43484;43.608;1.458;2023-02-28T14:45:00;100343.31;;;4.80;100.00
49723;BME280;43484;43.608;1.458;2023-02-28T14:47:35;100352.81;;;4.97;100.00
49723;BME280;43484;43.608;1.458;2023-02-28T14:50:03;100343.81;;;5.02;100.00
49723;BME280;43484;43.608;1.458;2023-02-28T14:52:31;100346.84;;;4.96;100.00
49723;BME280;43484;43.608;1.458;2023-02-28T14:55:04;100344.25;;;5.09;100.00
49723;BME280;43484;43.608;1.458;2023-02-28T14:57:39;100349.31;;;5.09;99.90
49723;BME280;43484;43.608;1.458;2023-02-28T15:02:53;100347.50;;;5.07;97.32
49723;BME280;43484;43.608;1.458;2023-02-28T15:05:32;100348.78;;;5.00;98.15
49723;BME280;43484;43.608;1.458;2023-02-28T15:08:15;100350.88;;;4.93;98.26
49723;BME280;43484;43.608;1.458;2023-02-28T15:13:20;100343.09;;;5.04;100.00
49723;BME280;43484;43.608;1.458;2023-02-28T15:21:13;100345.63;;;5.04;98.80
49723;BME280;43484;43.608;1.458;2023-02-28T15:23:46;100345.47;;;5.16;98.79